sensor_id;sensor_type;location;lat;lon;timestamp;P1;durP1;ratioP1;P2;durP2;ratioP2
64188;SDS011;50493;50.970;10.082;2023-01-23T00:00:38;13.18;;;5.82;;
64188;SDS011;50493;50.970;10.082;2023-01-23T00:03:05;13.10;;;6.40;;
64188;SDS011;50493;50.970;10.082;2023-01-23T00:05:30;13.63;;;6.00;;
64188;SDS011;50493;50.970;10.082;2023-01-23T00:07:56;13.07;;;6.25;;
64188;SDS011;50493;50.970;10.082;2023-01-23T00:10:21;12.43;;;5.70;;
64188;SDS011;50493;50.970;10.082;2023-01-23T00:12:47;12.80;;;5.80;;
64188;SDS011;50493;50.970;10.082;2023-01-23T00:15:17;13.35;;;5.78;;
64188;SDS011;50493;50.970;10.082;2023-01-23T00:17:44;12.65;;;5.53;;
64188;SDS011;50493;50.970;10.082;2023-01-23T00:20:10;13.38;;;5.68;;
64188;SDS011;50493;50.970;10.082;2023-01-23T00:22:37;12.32;;;5.53;;
64188;SDS011;50493;50.970;10.082;2023-01-23T00:25:03;12.43;;;5.95;;
64188;SDS011;50493;50.970;10.082;2023-01-23T00:27:29;11.75;;;5.38;;
64188;SDS011;50493;50.970;10.082;2023-01-23T00:29:55;10.82;;;5.43;;
64188;SDS011;50493;50.970;10.082;2023-01-23T00:32:20;12.68;;;6.05;;
64188;SDS011;50493;50.970;10.082;2023-01-23T00:34:47;10.68;;;5.05;;
64188;SDS011;50493;50.970;10.082;2023-01-23T00:37:13;10.25;;;5.35;;
64188;SDS011;50493;50.970;10.082;2023-01-23T00:39:40;14.40;;;5.93;;
64188;SDS011;50493;50.970;10.082;2023-01-23T00:42:06;10.50;;;4.63;;
64188;SDS011;50493;50.970;10.082;2023-01-23T00:44:31;9.85;;;4.85;;
64188;SDS011;50493;50.970;10.082;2023-01-23T00:46:56;10.98;;;5.22;;
64188;SDS011;50493;50.970;10.082;2023-01-23T00:49:22;10.38;;;4.90;;
64188;SDS011;50493;50.970;10.082;2023-01-23T00:51:49;11.18;;;5.03;;
64188;SDS011;50493;50.970;10.082;2023-01-23T00:54:15;10.15;;;5.13;;
64188;SDS011;50493;50.970;10.082;2023-01-23T00:56:41;9.50;;;4.70;;
64188;SDS011;50493;50.970;10.082;2023-01-23T00:59:06;10.07;;;4.68;;
64188;SDS011;50493;50.970;10.082;2023-01-23T01:01:32;9.77;;;4.90;;
64188;SDS011;50493;50.970;10.082;2023-01-23T01:03:58;8.35;;;4.65;;
64188;SDS011;50493;50.970;10.082;2023-01-23T01:06:23;11.25;;;5.22;;
64188;SDS011;50493;50.970;10.082;2023-01-23T01:08:50;9.90;;;4.40;;
64188;SDS011;50493;50.970;10.082;2023-01-23T01:11:15;11.10;;;4.90;;
64188;SDS011;50493;50.970;10.082;2023-01-23T01:13:41;10.88;;;5.05;;
64188;SDS011;50493;50.970;10.082;2023-01-23T01:16:08;7.60;;;3.88;;
64188;SDS011;50493;50.970;10.082;2023-01-23T01:18:34;9.25;;;4.53;;
64188;SDS011;50493;50.970;10.082;2023-01-23T01:21:00;7.50;;;3.88;;
64188;SDS011;50493;50.970;10.082;2023-01-23T01:23:25;7.50;;;3.97;;
64188;SDS011;50493;50.970;10.082;2023-01-23T01:25:52;7.32;;;3.78;;
64188;SDS011;50493;50.970;10.082;2023-01-23T01:28:23;8.80;;;4.35;;
64188;SDS011;50493;50.970;10.082;2023-01-23T01:30:48;10.38;;;4.53;;
64188;SDS011;50493;50.970;10.082;2023-01-23T01:33:13;6.40;;;3.35;;
64188;SDS011;50493;50.970;10.082;2023-01-23T01:35:39;7.18;;;3.63;;
64188;SDS011;50493;50.970;10.082;2023-01-23T01:38:05;9.20;;;4.55;;
64188;SDS011;50493;50.970;10.082;2023-01-23T01:40:31;7.80;;;4.18;;
64188;SDS011;50493;50.970;10.082;2023-01-23T01:42:59;6.43;;;3.67;;
64188;SDS011;50493;50.970;10.082;2023-01-23T01:48:34;9.50;;;4.35;;
64188;SDS011;50493;50.970;10.082;2023-01-23T01:51:05;7.35;;;3.90;;
64188;SDS011;50493;50.970;10.082;2023-01-23T01:53:35;6.47;;;3.45;;
64188;SDS011;50493;50.970;10.082;2023-01-23T01:56:02;7.80;;;3.63;;
64188;SDS011;50493;50.970;10.082;2023-01-23T01:58:30;9.70;;;4.47;;
64188;SDS011;50493;50.970;10.082;2023-01-23T02:00:56;8.18;;;4.00;;
64188;SDS011;50493;50.970;10.082;2023-01-23T02:03:21;7.28;;;3.92;;
64188;SDS011;50493;50.970;10.082;2023-01-23T02:05:48;8.32;;;3.97;;
64188;SDS011;50493;50.970;10.082;2023-01-23T02:08:15;8.20;;;4.20;;
64188;SDS011;50493;50.970;10.082;2023-01-23T02:10:46;8.15;;;4.22;;
64188;SDS011;50493;50.970;10.082;2023-01-23T02:13:19;8.18;;;4.07;;
64188;SDS011;50493;50.970;10.082;2023-01-23T02:15:48;7.80;;;4.28;;
64188;SDS011;50493;50.970;10.082;2023-01-23T02:18:14;6.95;;;3.80;;
64188;SDS011;50493;50.970;10.082;2023-01-23T02:20:40;6.88;;;3.60;;
64188;SDS011;50493;50.970;10.082;2023-01-23T02:23:06;8.00;;;3.88;;
64188;SDS011;50493;50.970;10.082;2023-01-23T02:25:39;8.00;;;3.85;;
64188;SDS011;50493;50.970;10.082;2023-01-23T02:28:15;6.63;;;3.78;;
64188;SDS011;50493;50.970;10.082;2023-01-23T02:30:42;8.07;;;4.05;;
64188;SDS011;50493;50.970;10.082;2023-01-23T02:33:39;7.07;;;3.60;;
64188;SDS011;50493;50.970;10.082;2023-01-23T02:36:08;6.80;;;3.42;;
64188;SDS011;50493;50.970;10.082;2023-01-23T02:38:36;6.82;;;3.53;;
64188;SDS011;50493;50.970;10.082;2023-01-23T02:41:06;6.40;;;3.30;;
64188;SDS011;50493;50.970;10.082;2023-01-23T02:43:34;7.38;;;3.78;;
64188;SDS011;50493;50.970;10.082;2023-01-23T02:46:02;7.10;;;3.40;;
64188;SDS011;50493;50.970;10.082;2023-01-23T02:48:28;8.25;;;4.45;;
64188;SDS011;50493;50.970;10.082;2023-01-23T02:50:53;7.93;;;4.03;;
64188;SDS011;50493;50.970;10.082;2023-01-23T02:53:18;6.45;;;3.40;;
64188;SDS011;50493;50.970;10.082;2023-01-23T02:55:44;7.60;;;4.03;;
64188;SDS011;50493;50.970;10.082;2023-01-23T02:58:11;7.50;;;4.22;;
64188;SDS011;50493;50.970;10.082;2023-01-23T03:00:55;7.72;;;3.70;;
64188;SDS011;50493;50.970;10.082;2023-01-23T03:03:20;6.88;;;3.40;;
64188;SDS011;50493;50.970;10.082;2023-01-23T03:05:46;9.95;;;5.28;;
64188;SDS011;50493;50.970;10.082;2023-01-23T03:08:12;8.00;;;4.38;;
64188;SDS011;50493;50.970;10.082;2023-01-23T03:10:38;9.45;;;5.60;;
64188;SDS011;50493;50.970;10.082;2023-01-23T03:13:03;10.05;;;5.35;;
64188;SDS011;50493;50.970;10.082;2023-01-23T03:15:32;10.20;;;5.45;;
64188;SDS011;50493;50.970;10.082;2023-01-23T03:17:58;9.38;;;5.00;;
64188;SDS011;50493;50.970;10.082;2023-01-23T03:20:24;8.85;;;4.70;;
64188;SDS011;50493;50.970;10.082;2023-01-23T03:22:51;9.10;;;4.88;;
64188;SDS011;50493;50.970;10.082;2023-01-23T03:25:16;18.65;;;8.57;;
64188;SDS011;50493;50.970;10.082;2023-01-23T03:27:41;10.13;;;5.47;;
64188;SDS011;50493;50.970;10.082;2023-01-23T03:30:07;13.48;;;7.00;;
64188;SDS011;50493;50.970;10.082;2023-01-23T03:32:41;14.38;;;8.15;;
64188;SDS011;50493;50.970;10.082;2023-01-23T03:35:08;14.32;;;7.82;;
64188;SDS011;50493;50.970;10.082;2023-01-23T03:37:37;13.05;;;6.65;;
64188;SDS011;50493;50.970;10.082;2023-01-23T03:40:03;12.35;;;6.55;;
64188;SDS011;50493;50.970;10.082;2023-01-23T03:42:47;11.85;;;5.68;;
64188;SDS011;50493;50.970;10.082;2023-01-23T03:45:13;9.95;;;4.50;;
64188;SDS011;50493;50.970;10.082;2023-01-23T03:47:38;13.73;;;6.88;;
64188;SDS011;50493;50.970;10.082;2023-01-23T03:50:05;15.98;;;7.93;;
64188;SDS011;50493;50.970;10.082;2023-01-23T03:52:32;15.25;;;9.73;;
64188;SDS011;50493;50.970;10.082;2023-01-23T03:54:57;12.00;;;6.18;;
64188;SDS011;50493;50.970;10.082;2023-01-23T03:57:23;14.13;;;7.28;;
64188;SDS011;50493;50.970;10.082;2023-01-23T03:59:48;13.60;;;7.13;;
64188;SDS011;50493;50.970;10.082;2023-01-23T04:02:13;15.70;;;7.97;;
64188;SDS011;50493;50.970;10.082;2023-01-23T04:04:39;15.77;;;7.88;;
64188;SDS011;50493;50.970;10.082;2023-01-23T04:07:06;23.60;;;12.98;;
64188;SDS011;50493;50.970;10.082;2023-01-23T04:09:31;13.25;;;7.05;;
64188;SDS011;50493;50.970;10.082;2023-01-23T04:11:57;11.75;;;5.90;;
64188;SDS011;50493;50.970;10.082;2023-01-23T04:14:23;13.82;;;6.10;;
64188;SDS011;50493;50.970;10.082;2023-01-23T04:16:50;11.45;;;5.22;;
64188;SDS011;50493;50.970;10.082;2023-01-23T04:19:15;14.70;;;7.50;;
64188;SDS011;50493;50.970;10.082;2023-01-23T04:21:43;14.13;;;6.53;;
64188;SDS011;50493;50.970;10.082;2023-01-23T04:24:10;14.75;;;6.93;;
64188;SDS011;50493;50.970;10.082;2023-01-23T04:26:36;17.95;;;9.15;;
64188;SDS011;50493;50.970;10.082;2023-01-23T04:29:02;17.17;;;7.82;;
64188;SDS011;50493;50.970;10.082;2023-01-23T04:31:27;20.65;;;11.25;;
64188;SDS011;50493;50.970;10.082;2023-01-23T04:33:52;14.93;;;6.97;;
64188;SDS011;50493;50.970;10.082;2023-01-23T04:36:18;15.43;;;6.95;;
64188;SDS011;50493;50.970;10.082;2023-01-23T04:38:43;17.77;;;8.95;;
64188;SDS011;50493;50.970;10.082;2023-01-23T04:41:09;16.23;;;7.43;;
64188;SDS011;50493;50.970;10.082;2023-01-23T04:43:42;17.27;;;8.27;;
64188;SDS011;50493;50.970;10.082;2023-01-23T04:46:07;19.45;;;9.23;;
64188;SDS011;50493;50.970;10.082;2023-01-23T04:48:32;29.75;;;12.73;;
64188;SDS011;50493;50.970;10.082;2023-01-23T04:50:58;24.98;;;12.50;;
64188;SDS011;50493;50.970;10.082;2023-01-23T04:53:23;16.33;;;8.68;;
64188;SDS011;50493;50.970;10.082;2023-01-23T04:55:48;19.95;;;9.98;;
64188;SDS011;50493;50.970;10.082;2023-01-23T04:58:15;16.38;;;7.57;;
64188;SDS011;50493;50.970;10.082;2023-01-23T05:00:41;12.25;;;5.78;;
64188;SDS011;50493;50.970;10.082;2023-01-23T05:03:07;16.52;;;7.60;;
64188;SDS011;50493;50.970;10.082;2023-01-23T05:05:33;13.52;;;6.72;;
64188;SDS011;50493;50.970;10.082;2023-01-23T05:07:58;15.32;;;6.93;;
64188;SDS011;50493;50.970;10.082;2023-01-23T05:10:24;18.40;;;8.57;;
64188;SDS011;50493;50.970;10.082;2023-01-23T05:12:49;17.65;;;8.85;;
64188;SDS011;50493;50.970;10.082;2023-01-23T05:15:16;15.65;;;8.25;;
64188;SDS011;50493;50.970;10.082;2023-01-23T05:17:42;17.00;;;7.90;;
64188;SDS011;50493;50.970;10.082;2023-01-23T05:20:09;17.67;;;8.10;;
64188;SDS011;50493;50.970;10.082;2023-01-23T05:22:35;15.05;;;7.40;;
64188;SDS011;50493;50.970;10.082;2023-01-23T05:25:01;18.40;;;8.23;;
64188;SDS011;50493;50.970;10.082;2023-01-23T05:27:26;19.95;;;9.50;;
64188;SDS011;50493;50.970;10.082;2023-01-23T05:29:52;18.55;;;8.90;;
64188;SDS011;50493;50.970;10.082;2023-01-23T05:32:18;17.38;;;8.32;;
64188;SDS011;50493;50.970;10.082;2023-01-23T05:34:44;18.83;;;8.43;;
64188;SDS011;50493;50.970;10.082;2023-01-23T05:37:09;16.02;;;6.55;;
64188;SDS011;50493;50.970;10.082;2023-01-23T05:39:35;20.02;;;9.50;;
64188;SDS011;50493;50.970;10.082;2023-01-23T05:42:00;16.75;;;7.07;;
64188;SDS011;50493;50.970;10.082;2023-01-23T05:44:26;19.02;;;8.75;;
64188;SDS011;50493;50.970;10.082;2023-01-23T05:46:52;18.23;;;8.02;;
64188;SDS011;50493;50.970;10.082;2023-01-23T05:49:19;18.55;;;8.77;;
64188;SDS011;50493;50.970;10.082;2023-01-23T05:51:44;24.30;;;11.57;;
64188;SDS011;50493;50.970;10.082;2023-01-23T05:54:09;21.05;;;9.00;;
64188;SDS011;50493;50.970;10.082;2023-01-23T05:56:35;19.92;;;8.70;;
64188;SDS011;50493;50.970;10.082;2023-01-23T05:59:00;19.27;;;8.07;;
64188;SDS011;50493;50.970;10.082;2023-01-23T06:01:25;20.00;;;9.50;;
64188;SDS011;50493;50.970;10.082;2023-01-23T06:03:51;16.45;;;7.15;;
64188;SDS011;50493;50.970;10.082;2023-01-23T06:06:17;18.23;;;8.35;;
64188;SDS011;50493;50.970;10.082;2023-01-23T06:08:43;21.17;;;8.82;;
64188;SDS011;50493;50.970;10.082;2023-01-23T06:11:08;21.38;;;9.90;;
64188;SDS011;50493;50.970;10.082;2023-01-23T06:13:34;20.52;;;8.90;;
64188;SDS011;50493;50.970;10.082;2023-01-23T06:16:00;17.30;;;7.15;;
64188;SDS011;50493;50.970;10.082;2023-01-23T06:18:26;18.50;;;7.65;;
64188;SDS011;50493;50.970;10.082;2023-01-23T06:20:55;17.25;;;7.13;;
64188;SDS011;50493;50.970;10.082;2023-01-23T06:23:23;21.65;;;9.60;;
64188;SDS011;50493;50.970;10.082;2023-01-23T06:25:48;22.98;;;9.27;;
64188;SDS011;50493;50.970;10.082;2023-01-23T06:28:13;21.33;;;10.40;;
64188;SDS011;50493;50.970;10.082;2023-01-23T06:30:39;21.67;;;9.13;;
64188;SDS011;50493;50.970;10.082;2023-01-23T06:33:04;21.10;;;9.25;;
64188;SDS011;50493;50.970;10.082;2023-01-23T06:35:29;21.30;;;8.88;;
64188;SDS011;50493;50.970;10.082;2023-01-23T06:37:55;21.13;;;8.93;;
64188;SDS011;50493;50.970;10.082;2023-01-23T06:40:21;20.50;;;9.18;;
64188;SDS011;50493;50.970;10.082;2023-01-23T06:42:47;22.48;;;9.13;;
64188;SDS011;50493;50.970;10.082;2023-01-23T06:45:12;22.58;;;10.05;;
64188;SDS011;50493;50.970;10.082;2023-01-23T06:47:37;22.20;;;10.68;;
64188;SDS011;50493;50.970;10.082;2023-01-23T06:50:03;20.80;;;8.73;;
64188;SDS011;50493;50.970;10.082;2023-01-23T06:52:29;18.45;;;8.50;;
64188;SDS011;50493;50.970;10.082;2023-01-23T06:54:54;22.10;;;9.68;;
64188;SDS011;50493;50.970;10.082;2023-01-23T06:57:21;19.40;;;8.13;;
64188;SDS011;50493;50.970;10.082;2023-01-23T06:59:47;20.10;;;9.30;;
64188;SDS011;50493;50.970;10.082;2023-01-23T07:02:12;18.00;;;7.60;;
64188;SDS011;50493;50.970;10.082;2023-01-23T07:04:38;24.40;;;11.35;;
64188;SDS011;50493;50.970;10.082;2023-01-23T07:07:03;19.67;;;9.45;;
64188;SDS011;50493;50.970;10.082;2023-01-23T07:09:29;22.85;;;9.07;;
64188;SDS011;50493;50.970;10.082;2023-01-23T07:11:54;20.23;;;8.30;;
64188;SDS011;50493;50.970;10.082;2023-01-23T07:14:21;21.55;;;10.25;;
64188;SDS011;50493;50.970;10.082;2023-01-23T07:16:46;17.73;;;8.10;;
64188;SDS011;50493;50.970;10.082;2023-01-23T07:19:12;18.85;;;7.40;;
64188;SDS011;50493;50.970;10.082;2023-01-23T07:21:37;21.40;;;9.65;;
64188;SDS011;50493;50.970;10.082;2023-01-23T07:24:03;19.88;;;7.85;;
64188;SDS011;50493;50.970;10.082;2023-01-23T07:26:29;28.13;;;11.80;;
64188;SDS011;50493;50.970;10.082;2023-01-23T07:28:54;20.00;;;8.80;;
64188;SDS011;50493;50.970;10.082;2023-01-23T07:31:21;22.02;;;9.43;;
64188;SDS011;50493;50.970;10.082;2023-01-23T07:33:47;20.23;;;8.70;;
64188;SDS011;50493;50.970;10.082;2023-01-23T07:36:12;18.60;;;8.10;;
64188;SDS011;50493;50.970;10.082;2023-01-23T07:38:42;19.95;;;9.27;;
64188;SDS011;50493;50.970;10.082;2023-01-23T07:41:07;20.45;;;8.63;;
64188;SDS011;50493;50.970;10.082;2023-01-23T07:43:33;20.17;;;8.38;;
64188;SDS011;50493;50.970;10.082;2023-01-23T07:45:58;17.05;;;8.05;;
64188;SDS011;50493;50.970;10.082;2023-01-23T07:48:25;20.70;;;9.77;;
64188;SDS011;50493;50.970;10.082;2023-01-23T07:50:51;20.73;;;8.60;;
64188;SDS011;50493;50.970;10.082;2023-01-23T07:53:17;22.05;;;9.25;;
64188;SDS011;50493;50.970;10.082;2023-01-23T07:55:42;23.63;;;9.32;;
64188;SDS011;50493;50.970;10.082;2023-01-23T07:58:08;22.23;;;9.68;;
64188;SDS011;50493;50.970;10.082;2023-01-23T08:00:33;19.05;;;7.63;;
64188;SDS011;50493;50.970;10.082;2023-01-23T08:02:59;21.58;;;9.57;;
64188;SDS011;50493;50.970;10.082;2023-01-23T08:05:26;23.15;;;10.48;;
64188;SDS011;50493;50.970;10.082;2023-01-23T08:07:51;21.13;;;8.45;;
64188;SDS011;50493;50.970;10.082;2023-01-23T08:10:16;20.40;;;7.95;;
64188;SDS011;50493;50.970;10.082;2023-01-23T08:12:42;18.63;;;7.75;;
64188;SDS011;50493;50.970;10.082;2023-01-23T08:15:08;24.70;;;11.50;;
64188;SDS011;50493;50.970;10.082;2023-01-23T08:17:34;21.17;;;8.88;;
64188;SDS011;50493;50.970;10.082;2023-01-23T08:20:00;22.17;;;9.80;;
64188;SDS011;50493;50.970;10.082;2023-01-23T08:22:27;20.45;;;8.27;;
64188;SDS011;50493;50.970;10.082;2023-01-23T08:24:52;18.90;;;7.97;;
64188;SDS011;50493;50.970;10.082;2023-01-23T08:27:17;17.27;;;7.45;;
64188;SDS011;50493;50.970;10.082;2023-01-23T08:29:43;23.63;;;9.77;;
64188;SDS011;50493;50.970;10.082;2023-01-23T08:32:08;23.98;;;9.70;;
64188;SDS011;50493;50.970;10.082;2023-01-23T08:34:34;53.88;;;24.20;;
64188;SDS011;50493;50.970;10.082;2023-01-23T08:36:59;108.22;;;29.27;;
64188;SDS011;50493;50.970;10.082;2023-01-23T08:39:26;35.40;;;14.63;;
64188;SDS011;50493;50.970;10.082;2023-01-23T08:41:52;46.90;;;17.25;;
64188;SDS011;50493;50.970;10.082;2023-01-23T08:44:17;41.75;;;14.40;;
64188;SDS011;50493;50.970;10.082;2023-01-23T08:46:43;58.55;;;20.52;;
64188;SDS011;50493;50.970;10.082;2023-01-23T08:49:09;101.85;;;35.63;;
64188;SDS011;50493;50.970;10.082;2023-01-23T08:51:34;39.65;;;13.70;;
64188;SDS011;50493;50.970;10.082;2023-01-23T08:53:59;27.85;;;11.82;;
64188;SDS011;50493;50.970;10.082;2023-01-23T08:56:26;25.15;;;10.23;;
64188;SDS011;50493;50.970;10.082;2023-01-23T08:58:51;29.60;;;13.25;;
64188;SDS011;50493;50.970;10.082;2023-01-23T09:01:17;28.95;;;12.63;;
64188;SDS011;50493;50.970;10.082;2023-01-23T09:03:45;25.63;;;10.40;;
64188;SDS011;50493;50.970;10.082;2023-01-23T09:06:11;26.95;;;11.00;;
64188;SDS011;50493;50.970;10.082;2023-01-23T09:08:37;24.70;;;9.38;;
64188;SDS011;50493;50.970;10.082;2023-01-23T09:11:04;28.02;;;11.40;;
64188;SDS011;50493;50.970;10.082;2023-01-23T09:13:32;30.23;;;12.93;;
64188;SDS011;50493;50.970;10.082;2023-01-23T09:15:58;29.80;;;11.82;;
64188;SDS011;50493;50.970;10.082;2023-01-23T09:18:24;27.08;;;10.98;;
64188;SDS011;50493;50.970;10.082;2023-01-23T09:20:49;28.23;;;11.70;;
64188;SDS011;50493;50.970;10.082;2023-01-23T09:23:15;27.15;;;11.13;;
64188;SDS011;50493;50.970;10.082;2023-01-23T09:25:40;25.52;;;10.93;;
64188;SDS011;50493;50.970;10.082;2023-01-23T09:28:06;27.05;;;9.98;;
64188;SDS011;50493;50.970;10.082;2023-01-23T09:30:32;26.85;;;10.05;;
64188;SDS011;50493;50.970;10.082;2023-01-23T09:32:58;23.70;;;9.55;;
64188;SDS011;50493;50.970;10.082;2023-01-23T09:35:23;27.40;;;11.50;;
64188;SDS011;50493;50.970;10.082;2023-01-23T09:37:48;26.63;;;10.27;;
64188;SDS011;50493;50.970;10.082;2023-01-23T09:40:28;21.38;;;8.98;;
64188;SDS011;50493;50.970;10.082;2023-01-23T09:42:56;38.40;;;14.38;;
64188;SDS011;50493;50.970;10.082;2023-01-23T09:45:24;24.52;;;9.70;;
64188;SDS011;50493;50.970;10.082;2023-01-23T09:47:54;40.85;;;15.88;;
64188;SDS011;50493;50.970;10.082;2023-01-23T09:50:35;44.83;;;18.60;;
64188;SDS011;50493;50.970;10.082;2023-01-23T09:53:04;29.98;;;11.40;;
64188;SDS011;50493;50.970;10.082;2023-01-23T09:55:38;30.95;;;12.85;;
64188;SDS011;50493;50.970;10.082;2023-01-23T09:58:09;35.85;;;15.43;;
64188;SDS011;50493;50.970;10.082;2023-01-23T10:00:39;27.88;;;12.18;;
64188;SDS011;50493;50.970;10.082;2023-01-23T10:03:09;34.88;;;14.25;;
64188;SDS011;50493;50.970;10.082;2023-01-23T10:05:39;35.08;;;12.90;;
64188;SDS011;50493;50.970;10.082;2023-01-23T10:08:13;27.02;;;11.10;;
64188;SDS011;50493;50.970;10.082;2023-01-23T10:10:56;26.75;;;11.07;;
64188;SDS011;50493;50.970;10.082;2023-01-23T10:13:29;26.75;;;12.85;;
64188;SDS011;50493;50.970;10.082;2023-01-23T10:16:16;29.50;;;11.80;;
64188;SDS011;50493;50.970;10.082;2023-01-23T10:18:57;30.65;;;11.13;;
64188;SDS011;50493;50.970;10.082;2023-01-23T10:21:33;31.92;;;15.63;;
64188;SDS011;50493;50.970;10.082;2023-01-23T10:24:20;30.77;;;14.30;;
64188;SDS011;50493;50.970;10.082;2023-01-23T10:26:58;29.08;;;11.07;;
64188;SDS011;50493;50.970;10.082;2023-01-23T10:29:28;25.08;;;10.57;;
64188;SDS011;50493;50.970;10.082;2023-01-23T10:31:58;24.02;;;10.15;;
64188;SDS011;50493;50.970;10.082;2023-01-23T10:34:29;25.42;;;10.38;;
64188;SDS011;50493;50.970;10.082;2023-01-23T10:37:06;24.83;;;10.57;;
64188;SDS011;50493;50.970;10.082;2023-01-23T10:39:41;29.65;;;12.00;;
64188;SDS011;50493;50.970;10.082;2023-01-23T10:42:11;23.55;;;9.52;;
64188;SDS011;50493;50.970;10.082;2023-01-23T10:44:38;27.38;;;11.13;;
64188;SDS011;50493;50.970;10.082;2023-01-23T10:47:05;27.45;;;10.93;;
64188;SDS011;50493;50.970;10.082;2023-01-23T10:49:44;24.90;;;10.38;;
64188;SDS011;50493;50.970;10.082;2023-01-23T10:52:27;38.45;;;13.88;;
64188;SDS011;50493;50.970;10.082;2023-01-23T10:54:55;23.05;;;9.60;;
64188;SDS011;50493;50.970;10.082;2023-01-23T10:57:22;26.15;;;11.75;;
64188;SDS011;50493;50.970;10.082;2023-01-23T10:59:51;27.83;;;11.90;;
64188;SDS011;50493;50.970;10.082;2023-01-23T11:02:20;29.20;;;15.00;;
64188;SDS011;50493;50.970;10.082;2023-01-23T11:04:53;23.52;;;10.48;;
64188;SDS011;50493;50.970;10.082;2023-01-23T11:07:20;23.92;;;10.90;;
64188;SDS011;50493;50.970;10.082;2023-01-23T11:09:49;22.92;;;11.95;;
64188;SDS011;50493;50.970;10.082;2023-01-23T11:12:17;22.92;;;11.02;;
64188;SDS011;50493;50.970;10.082;2023-01-23T11:14:44;25.23;;;13.32;;
64188;SDS011;50493;50.970;10.082;2023-01-23T11:17:14;24.05;;;11.82;;
64188;SDS011;50493;50.970;10.082;2023-01-23T11:19:44;21.58;;;9.95;;
64188;SDS011;50493;50.970;10.082;2023-01-23T11:22:23;20.77;;;9.38;;
64188;SDS011;50493;50.970;10.082;2023-01-23T11:24:52;20.52;;;10.02;;
64188;SDS011;50493;50.970;10.082;2023-01-23T11:27:18;21.83;;;9.75;;
64188;SDS011;50493;50.970;10.082;2023-01-23T11:29:52;20.45;;;9.40;;
64188;SDS011;50493;50.970;10.082;2023-01-23T11:32:25;26.90;;;12.68;;
64188;SDS011;50493;50.970;10.082;2023-01-23T11:35:01;21.10;;;10.15;;
64188;SDS011;50493;50.970;10.082;2023-01-23T11:37:37;22.05;;;9.65;;
64188;SDS011;50493;50.970;10.082;2023-01-23T11:40:06;27.73;;;12.43;;
64188;SDS011;50493;50.970;10.082;2023-01-23T11:42:37;24.00;;;9.70;;
64188;SDS011;50493;50.970;10.082;2023-01-23T11:45:05;29.35;;;13.43;;
64188;SDS011;50493;50.970;10.082;2023-01-23T11:47:47;24.70;;;10.73;;
64188;SDS011;50493;50.970;10.082;2023-01-23T11:50:21;29.05;;;12.95;;
64188;SDS011;50493;50.970;10.082;2023-01-23T11:52:56;37.70;;;18.08;;
64188;SDS011;50493;50.970;10.082;2023-01-23T11:55:32;24.17;;;10.27;;
64188;SDS011;50493;50.970;10.082;2023-01-23T11:58:08;22.08;;;11.07;;
64188;SDS011;50493;50.970;10.082;2023-01-23T12:00:43;23.45;;;9.52;;
64188;SDS011;50493;50.970;10.082;2023-01-23T12:03:19;25.92;;;12.55;;
64188;SDS011;50493;50.970;10.082;2023-01-23T12:06:00;26.48;;;13.38;;
64188;SDS011;50493;50.970;10.082;2023-01-23T12:08:33;22.95;;;10.60;;
64188;SDS011;50493;50.970;10.082;2023-01-23T12:11:06;24.42;;;10.63;;
64188;SDS011;50493;50.970;10.082;2023-01-23T12:13:48;23.98;;;11.10;;
64188;SDS011;50493;50.970;10.082;2023-01-23T12:16:23;24.92;;;10.77;;
64188;SDS011;50493;50.970;10.082;2023-01-23T12:19:00;26.67;;;11.23;;
64188;SDS011;50493;50.970;10.082;2023-01-23T12:21:35;28.90;;;13.85;;
64188;SDS011;50493;50.970;10.082;2023-01-23T12:24:10;23.67;;;10.55;;
64188;SDS011;50493;50.970;10.082;2023-01-23T12:26:44;25.40;;;11.40;;
64188;SDS011;50493;50.970;10.082;2023-01-23T12:32:12;23.67;;;9.85;;
64188;SDS011;50493;50.970;10.082;2023-01-23T12:34:52;23.73;;;10.07;;
64188;SDS011;50493;50.970;10.082;2023-01-23T12:37:33;25.73;;;11.70;;
64188;SDS011;50493;50.970;10.082;2023-01-23T12:40:12;22.88;;;9.82;;
64188;SDS011;50493;50.970;10.082;2023-01-23T12:42:46;24.77;;;10.32;;
64188;SDS011;50493;50.970;10.082;2023-01-23T12:45:17;23.75;;;10.93;;
64188;SDS011;50493;50.970;10.082;2023-01-23T12:47:47;25.23;;;12.15;;
64188;SDS011;50493;50.970;10.082;2023-01-23T12:50:18;19.20;;;8.70;;
64188;SDS011;50493;50.970;10.082;2023-01-23T12:52:46;22.70;;;10.32;;
64188;SDS011;50493;50.970;10.082;2023-01-23T12:55:16;26.95;;;11.82;;
64188;SDS011;50493;50.970;10.082;2023-01-23T12:57:44;26.30;;;11.10;;
64188;SDS011;50493;50.970;10.082;2023-01-23T13:00:18;26.17;;;11.90;;
64188;SDS011;50493;50.970;10.082;2023-01-23T13:02:57;22.08;;;9.98;;
64188;SDS011;50493;50.970;10.082;2023-01-23T13:05:36;21.80;;;9.65;;
64188;SDS011;50493;50.970;10.082;2023-01-23T13:08:08;22.90;;;9.60;;
64188;SDS011;50493;50.970;10.082;2023-01-23T13:10:53;21.92;;;9.07;;
64188;SDS011;50493;50.970;10.082;2023-01-23T13:13:44;20.67;;;9.60;;
64188;SDS011;50493;50.970;10.082;2023-01-23T13:16:11;21.95;;;9.02;;
64188;SDS011;50493;50.970;10.082;2023-01-23T13:18:38;24.05;;;11.60;;
64188;SDS011;50493;50.970;10.082;2023-01-23T13:21:27;21.60;;;10.57;;
64188;SDS011;50493;50.970;10.082;2023-01-23T13:24:26;23.83;;;9.38;;
64188;SDS011;50493;50.970;10.082;2023-01-23T13:30:00;22.95;;;9.95;;
64188;SDS011;50493;50.970;10.082;2023-01-23T13:32:26;20.20;;;9.20;;
64188;SDS011;50493;50.970;10.082;2023-01-23T13:34:53;26.20;;;12.77;;
64188;SDS011;50493;50.970;10.082;2023-01-23T13:37:46;20.05;;;9.20;;
64188;SDS011;50493;50.970;10.082;2023-01-23T13:40:16;21.83;;;9.40;;
64188;SDS011;50493;50.970;10.082;2023-01-23T13:42:45;21.67;;;9.32;;
64188;SDS011;50493;50.970;10.082;2023-01-23T13:45:23;22.95;;;9.55;;
64188;SDS011;50493;50.970;10.082;2023-01-23T13:48:13;24.27;;;10.00;;
64188;SDS011;50493;50.970;10.082;2023-01-23T13:51:15;20.35;;;9.20;;
64188;SDS011;50493;50.970;10.082;2023-01-23T13:53:43;22.35;;;9.32;;
64188;SDS011;50493;50.970;10.082;2023-01-23T13:56:29;25.80;;;11.45;;
64188;SDS011;50493;50.970;10.082;2023-01-23T13:59:10;22.92;;;9.98;;
64188;SDS011;50493;50.970;10.082;2023-01-23T14:01:43;25.05;;;11.05;;
64188;SDS011;50493;50.970;10.082;2023-01-23T14:04:33;19.35;;;9.57;;
64188;SDS011;50493;50.970;10.082;2023-01-23T14:07:22;21.23;;;9.32;;
64188;SDS011;50493;50.970;10.082;2023-01-23T14:10:11;23.95;;;10.43;;
64188;SDS011;50493;50.970;10.082;2023-01-23T14:12:39;22.08;;;9.48;;
64188;SDS011;50493;50.970;10.082;2023-01-23T14:15:17;24.52;;;11.27;;
64188;SDS011;50493;50.970;10.082;2023-01-23T14:18:11;19.77;;;8.75;;
64188;SDS011;50493;50.970;10.082;2023-01-23T14:20:41;27.35;;;12.68;;
64188;SDS011;50493;50.970;10.082;2023-01-23T14:23:13;25.55;;;11.68;;
64188;SDS011;50493;50.970;10.082;2023-01-23T14:25:42;22.27;;;9.48;;
64188;SDS011;50493;50.970;10.082;2023-01-23T14:28:11;20.75;;;9.60;;
64188;SDS011;50493;50.970;10.082;2023-01-23T14:30:46;28.92;;;13.90;;
64188;SDS011;50493;50.970;10.082;2023-01-23T14:33:17;23.70;;;10.15;;
64188;SDS011;50493;50.970;10.082;2023-01-23T14:35:42;31.50;;;13.88;;
64188;SDS011;50493;50.970;10.082;2023-01-23T14:38:08;27.25;;;12.25;;